sensor_id;sensor_type;location;lat;lon;timestamp;P1;durP1;ratioP1;P2;durP2;ratioP2
22715;SDS011;11525;51.152;4.456;2023-11-19T00:00:35;15.45;;;7.22;;
22715;SDS011;11525;51.152;4.456;2023-11-19T00:03:01;13.80;;;7.40;;
22715;SDS011;11525;51.152;4.456;2023-11-19T00:05:27;13.50;;;6.70;;
22715;SDS011;11525;51.152;4.456;2023-11-19T00:07:54;13.18;;;6.50;;
22715;SDS011;11525;51.152;4.456;2023-11-19T00:10:20;16.83;;;7.63;;
22715;SDS011;11525;51.152;4.456;2023-11-19T00:12:46;17.35;;;6.72;;
22715;SDS011;11525;51.152;4.456;2023-11-19T00:15:13;18.25;;;6.88;;
22715;SDS011;11525;51.152;4.456;2023-11-19T00:17:40;15.52;;;6.00;;
22715;SDS011;11525;51.152;4.456;2023-11-19T00:20:10;15.05;;;6.20;;
22715;SDS011;11525;51.152;4.456;2023-11-19T00:22:36;15.82;;;5.65;;
22715;SDS011;11525;51.152;4.456;2023-11-19T00:25:02;17.05;;;6.20;;
22715;SDS011;11525;51.152;4.456;2023-11-19T00:27:29;16.02;;;5.95;;
22715;SDS011;11525;51.152;4.456;2023-11-19T00:29:55;21.05;;;6.72;;
22715;SDS011;11525;51.152;4.456;2023-11-19T00:32:22;19.15;;;5.85;;
22715;SDS011;11525;51.152;4.456;2023-11-19T00:34:48;26.05;;;5.65;;
22715;SDS011;11525;51.152;4.456;2023-11-19T00:37:14;25.17;;;5.78;;
22715;SDS011;11525;51.152;4.456;2023-11-19T00:39:40;18.27;;;4.57;;
22715;SDS011;11525;51.152;4.456;2023-11-19T00:42:07;22.65;;;6.75;;
22715;SDS011;11525;51.152;4.456;2023-11-19T00:44:33;20.70;;;5.72;;
22715;SDS011;11525;51.152;4.456;2023-11-19T00:46:59;20.23;;;4.65;;
22715;SDS011;11525;51.152;4.456;2023-11-19T00:49:25;14.23;;;4.32;;
22715;SDS011;11525;51.152;4.456;2023-11-19T00:51:51;19.70;;;4.68;;
22715;SDS011;11525;51.152;4.456;2023-11-19T00:54:17;28.20;;;5.30;;
22715;SDS011;11525;51.152;4.456;2023-11-19T00:56:43;18.73;;;4.80;;
22715;SDS011;11525;51.152;4.456;2023-11-19T00:59:09;21.27;;;4.75;;
22715;SDS011;11525;51.152;4.456;2023-11-19T01:01:35;25.73;;;5.32;;
22715;SDS011;11525;51.152;4.456;2023-11-19T01:04:01;18.55;;;5.00;;
22715;SDS011;11525;51.152;4.456;2023-11-19T01:06:31;24.63;;;5.05;;
22715;SDS011;11525;51.152;4.456;2023-11-19T01:08:57;27.20;;;5.35;;
22715;SDS011;11525;51.152;4.456;2023-11-19T01:11:24;29.98;;;5.70;;
22715;SDS011;11525;51.152;4.456;2023-11-19T01:13:50;22.85;;;5.10;;
22715;SDS011;11525;51.152;4.456;2023-11-19T01:16:17;32.03;;;5.70;;
22715;SDS011;11525;51.152;4.456;2023-11-19T01:18:46;28.15;;;6.32;;
22715;SDS011;11525;51.152;4.456;2023-11-19T01:21:12;32.58;;;5.85;;
22715;SDS011;11525;51.152;4.456;2023-11-19T01:23:39;29.58;;;5.95;;
22715;SDS011;11525;51.152;4.456;2023-11-19T01:26:08;28.08;;;7.03;;
22715;SDS011;11525;51.152;4.456;2023-11-19T01:28:35;37.05;;;7.40;;
22715;SDS011;11525;51.152;4.456;2023-11-19T01:31:01;29.23;;;6.70;;
22715;SDS011;11525;51.152;4.456;2023-11-19T01:33:28;36.10;;;7.32;;
22715;SDS011;11525;51.152;4.456;2023-11-19T01:35:54;29.80;;;6.72;;
22715;SDS011;11525;51.152;4.456;2023-11-19T01:38:21;33.20;;;7.22;;
22715;SDS011;11525;51.152;4.456;2023-11-19T01:40:46;28.50;;;6.38;;
22715;SDS011;11525;51.152;4.456;2023-11-19T01:43:12;29.27;;;6.72;;
22715;SDS011;11525;51.152;4.456;2023-11-19T01:45:55;39.53;;;6.68;;
22715;SDS011;11525;51.152;4.456;2023-11-19T01:48:22;34.63;;;7.22;;
22715;SDS011;11525;51.152;4.456;2023-11-19T01:50:47;34.88;;;7.53;;
22715;SDS011;11525;51.152;4.456;2023-11-19T01:53:14;30.50;;;6.90;;
22715;SDS011;11525;51.152;4.456;2023-11-19T01:55:40;33.13;;;6.88;;
22715;SDS011;11525;51.152;4.456;2023-11-19T01:58:05;30.05;;;5.88;;
22715;SDS011;11525;51.152;4.456;2023-11-19T02:00:33;35.78;;;6.78;;
22715;SDS011;11525;51.152;4.456;2023-11-19T02:03:01;40.75;;;7.00;;
22715;SDS011;11525;51.152;4.456;2023-11-19T02:05:28;31.52;;;7.00;;
22715;SDS011;11525;51.152;4.456;2023-11-19T02:07:54;31.45;;;6.82;;
22715;SDS011;11525;51.152;4.456;2023-11-19T02:10:19;37.88;;;7.45;;
22715;SDS011;11525;51.152;4.456;2023-11-19T02:12:45;38.53;;;7.78;;
22715;SDS011;11525;51.152;4.456;2023-11-19T02:15:11;31.65;;;6.70;;
22715;SDS011;11525;51.152;4.456;2023-11-19T02:17:37;36.13;;;7.43;;
22715;SDS011;11525;51.152;4.456;2023-11-19T02:20:03;35.40;;;7.13;;
22715;SDS011;11525;51.152;4.456;2023-11-19T02:22:34;31.40;;;7.50;;
22715;SDS011;11525;51.152;4.456;2023-11-19T02:25:00;40.55;;;7.00;;
22715;SDS011;11525;51.152;4.456;2023-11-19T02:27:58;39.05;;;7.50;;
22715;SDS011;11525;51.152;4.456;2023-11-19T02:30:25;36.17;;;7.00;;
22715;SDS011;11525;51.152;4.456;2023-11-19T02:32:52;41.08;;;7.15;;
22715;SDS011;11525;51.152;4.456;2023-11-19T02:35:19;51.70;;;8.07;;
22715;SDS011;11525;51.152;4.456;2023-11-19T02:37:46;44.45;;;8.68;;
22715;SDS011;11525;51.152;4.456;2023-11-19T02:40:12;38.20;;;7.50;;
22715;SDS011;11525;51.152;4.456;2023-11-19T02:42:38;51.22;;;8.27;;
22715;SDS011;11525;51.152;4.456;2023-11-19T02:45:04;39.03;;;7.45;;
22715;SDS011;11525;51.152;4.456;2023-11-19T02:47:32;40.22;;;8.07;;
22715;SDS011;11525;51.152;4.456;2023-11-19T02:49:58;34.08;;;7.35;;
22715;SDS011;11525;51.152;4.456;2023-11-19T02:52:24;36.33;;;7.93;;
22715;SDS011;11525;51.152;4.456;2023-11-19T02:54:50;44.70;;;8.25;;
22715;SDS011;11525;51.152;4.456;2023-11-19T02:57:16;46.83;;;8.73;;
22715;SDS011;11525;51.152;4.456;2023-11-19T02:59:46;41.33;;;8.45;;
22715;SDS011;11525;51.152;4.456;2023-11-19T03:02:11;48.47;;;8.30;;
22715;SDS011;11525;51.152;4.456;2023-11-19T03:04:40;46.38;;;7.72;;
22715;SDS011;11525;51.152;4.456;2023-11-19T03:07:08;40.55;;;7.60;;
22715;SDS011;11525;51.152;4.456;2023-11-19T03:09:34;37.58;;;8.75;;
22715;SDS011;11525;51.152;4.456;2023-11-19T03:12:00;40.33;;;8.02;;
22715;SDS011;11525;51.152;4.456;2023-11-19T03:14:27;43.65;;;7.75;;
22715;SDS011;11525;51.152;4.456;2023-11-19T03:16:53;36.40;;;7.70;;
22715;SDS011;11525;51.152;4.456;2023-11-19T03:19:19;51.33;;;8.88;;
22715;SDS011;11525;51.152;4.456;2023-11-19T03:21:44;48.80;;;8.02;;
22715;SDS011;11525;51.152;4.456;2023-11-19T03:24:12;48.25;;;7.80;;
22715;SDS011;11525;51.152;4.456;2023-11-19T03:26:38;45.92;;;8.15;;
22715;SDS011;11525;51.152;4.456;2023-11-19T03:29:04;50.28;;;8.48;;
22715;SDS011;11525;51.152;4.456;2023-11-19T03:31:30;43.40;;;8.07;;
22715;SDS011;11525;51.152;4.456;2023-11-19T03:33:56;37.65;;;7.97;;
22715;SDS011;11525;51.152;4.456;2023-11-19T03:36:22;52.40;;;9.50;;
22715;SDS011;11525;51.152;4.456;2023-11-19T03:38:47;39.47;;;8.43;;
22715;SDS011;11525;51.152;4.456;2023-11-19T03:41:13;42.13;;;8.43;;
22715;SDS011;11525;51.152;4.456;2023-11-19T03:43:40;49.17;;;8.82;;
22715;SDS011;11525;51.152;4.456;2023-11-19T03:46:19;44.08;;;8.63;;
22715;SDS011;11525;51.152;4.456;2023-11-19T03:48:49;36.90;;;7.53;;
22715;SDS011;11525;51.152;4.456;2023-11-19T03:51:15;49.10;;;8.50;;
22715;SDS011;11525;51.152;4.456;2023-11-19T03:53:45;52.03;;;8.73;;
22715;SDS011;11525;51.152;4.456;2023-11-19T03:56:11;43.25;;;8.50;;
22715;SDS011;11525;51.152;4.456;2023-11-19T03:58:37;47.22;;;7.35;;
22715;SDS011;11525;51.152;4.456;2023-11-19T04:01:10;37.95;;;8.38;;
22715;SDS011;11525;51.152;4.456;2023-11-19T04:03:39;42.53;;;8.35;;
22715;SDS011;11525;51.152;4.456;2023-11-19T04:06:05;46.78;;;9.23;;
22715;SDS011;11525;51.152;4.456;2023-11-19T04:08:31;45.35;;;8.35;;
22715;SDS011;11525;51.152;4.456;2023-11-19T04:10:57;34.15;;;7.05;;
22715;SDS011;11525;51.152;4.456;2023-11-19T04:13:23;38.00;;;7.25;;
22715;SDS011;11525;51.152;4.456;2023-11-19T04:15:49;34.45;;;7.88;;
22715;SDS011;11525;51.152;4.456;2023-11-19T04:18:15;39.80;;;8.10;;
22715;SDS011;11525;51.152;4.456;2023-11-19T04:20:41;33.75;;;7.70;;
22715;SDS011;11525;51.152;4.456;2023-11-19T04:23:08;39.33;;;8.25;;
22715;SDS011;11525;51.152;4.456;2023-11-19T04:25:34;41.33;;;8.40;;
22715;SDS011;11525;51.152;4.456;2023-11-19T04:28:01;44.25;;;9.05;;
22715;SDS011;11525;51.152;4.456;2023-11-19T04:30:27;41.55;;;8.50;;
22715;SDS011;11525;51.152;4.456;2023-11-19T04:32:54;39.88;;;7.80;;
22715;SDS011;11525;51.152;4.456;2023-11-19T04:35:19;44.28;;;9.05;;
22715;SDS011;11525;51.152;4.456;2023-11-19T04:37:46;48.55;;;9.25;;
22715;SDS011;11525;51.152;4.456;2023-11-19T04:40:12;39.60;;;8.05;;
22715;SDS011;11525;51.152;4.456;2023-11-19T04:42:38;48.75;;;7.70;;
22715;SDS011;11525;51.152;4.456;2023-11-19T04:45:07;39.38;;;8.73;;
22715;SDS011;11525;51.152;4.456;2023-11-19T04:47:35;46.38;;;8.65;;
22715;SDS011;11525;51.152;4.456;2023-11-19T04:50:01;49.75;;;9.25;;
22715;SDS011;11525;51.152;4.456;2023-11-19T04:52:28;44.67;;;8.75;;
22715;SDS011;11525;51.152;4.456;2023-11-19T04:54:54;40.10;;;8.25;;
22715;SDS011;11525;51.152;4.456;2023-11-19T04:57:20;51.78;;;9.18;;
22715;SDS011;11525;51.152;4.456;2023-11-19T04:59:45;51.42;;;9.73;;
22715;SDS011;11525;51.152;4.456;2023-11-19T05:02:11;48.05;;;9.27;;
22715;SDS011;11525;51.152;4.456;2023-11-19T05:04:41;50.58;;;9.23;;
22715;SDS011;11525;51.152;4.456;2023-11-19T05:07:09;47.67;;;9.27;;
22715;SDS011;11525;51.152;4.456;2023-11-19T05:09:35;39.72;;;8.63;;
22715;SDS011;11525;51.152;4.456;2023-11-19T05:12:01;49.00;;;9.23;;
22715;SDS011;11525;51.152;4.456;2023-11-19T05:14:27;41.92;;;8.77;;
22715;SDS011;11525;51.152;4.456;2023-11-19T05:16:53;41.47;;;8.60;;
22715;SDS011;11525;51.152;4.456;2023-11-19T05:19:19;54.30;;;9.90;;
22715;SDS011;11525;51.152;4.456;2023-11-19T05:21:44;55.50;;;9.70;;
22715;SDS011;11525;51.152;4.456;2023-11-19T05:24:10;49.47;;;9.57;;
22715;SDS011;11525;51.152;4.456;2023-11-19T05:26:39;43.92;;;7.40;;
22715;SDS011;11525;51.152;4.456;2023-11-19T05:29:05;54.13;;;9.48;;
22715;SDS011;11525;51.152;4.456;2023-11-19T05:31:31;46.42;;;8.75;;
22715;SDS011;11525;51.152;4.456;2023-11-19T05:33:57;45.08;;;8.52;;
22715;SDS011;11525;51.152;4.456;2023-11-19T05:36:23;52.00;;;9.18;;
22715;SDS011;11525;51.152;4.456;2023-11-19T05:38:48;50.30;;;8.82;;
22715;SDS011;11525;51.152;4.456;2023-11-19T05:41:14;54.92;;;10.23;;
22715;SDS011;11525;51.152;4.456;2023-11-19T05:43:40;48.83;;;8.93;;
22715;SDS011;11525;51.152;4.456;2023-11-19T05:46:07;53.90;;;9.80;;
22715;SDS011;11525;51.152;4.456;2023-11-19T05:48:34;50.38;;;9.82;;
22715;SDS011;11525;51.152;4.456;2023-11-19T05:50:59;45.85;;;8.80;;
22715;SDS011;11525;51.152;4.456;2023-11-19T05:53:25;50.85;;;10.50;;
22715;SDS011;11525;51.152;4.456;2023-11-19T05:55:51;50.35;;;9.88;;
22715;SDS011;11525;51.152;4.456;2023-11-19T05:58:24;54.38;;;9.90;;
22715;SDS011;11525;51.152;4.456;2023-11-19T06:00:51;48.30;;;8.65;;
22715;SDS011;11525;51.152;4.456;2023-11-19T06:03:18;42.42;;;7.70;;
22715;SDS011;11525;51.152;4.456;2023-11-19T06:05:45;58.95;;;11.60;;
22715;SDS011;11525;51.152;4.456;2023-11-19T06:08:11;53.72;;;9.70;;
22715;SDS011;11525;51.152;4.456;2023-11-19T06:10:41;51.58;;;10.05;;
22715;SDS011;11525;51.152;4.456;2023-11-19T06:13:07;53.08;;;10.18;;
22715;SDS011;11525;51.152;4.456;2023-11-19T06:15:35;51.33;;;9.27;;
22715;SDS011;11525;51.152;4.456;2023-11-19T06:18:01;44.83;;;10.15;;
22715;SDS011;11525;51.152;4.456;2023-11-19T06:20:29;49.60;;;9.73;;
22715;SDS011;11525;51.152;4.456;2023-11-19T06:22:56;51.38;;;9.48;;
22715;SDS011;11525;51.152;4.456;2023-11-19T06:25:23;55.53;;;9.65;;
22715;SDS011;11525;51.152;4.456;2023-11-19T06:27:51;44.60;;;9.45;;
22715;SDS011;11525;51.152;4.456;2023-11-19T06:30:18;46.33;;;9.50;;
22715;SDS011;11525;51.152;4.456;2023-11-19T06:32:44;50.40;;;10.05;;
22715;SDS011;11525;51.152;4.456;2023-11-19T06:35:10;42.53;;;9.23;;
22715;SDS011;11525;51.152;4.456;2023-11-19T06:37:38;41.83;;;8.65;;
22715;SDS011;11525;51.152;4.456;2023-11-19T06:40:04;65.80;;;11.10;;
22715;SDS011;11525;51.152;4.456;2023-11-19T06:42:31;44.00;;;9.25;;
22715;SDS011;11525;51.152;4.456;2023-11-19T06:44:56;66.72;;;10.68;;
22715;SDS011;11525;51.152;4.456;2023-11-19T06:47:25;57.35;;;9.40;;
22715;SDS011;11525;51.152;4.456;2023-11-19T06:49:52;47.08;;;8.77;;
22715;SDS011;11525;51.152;4.456;2023-11-19T06:52:19;54.15;;;11.25;;
22715;SDS011;11525;51.152;4.456;2023-11-19T06:54:44;52.15;;;9.77;;
22715;SDS011;11525;51.152;4.456;2023-11-19T06:57:10;46.78;;;10.60;;
22715;SDS011;11525;51.152;4.456;2023-11-19T06:59:37;54.45;;;10.02;;
22715;SDS011;11525;51.152;4.456;2023-11-19T07:02:03;52.63;;;9.57;;
22715;SDS011;11525;51.152;4.456;2023-11-19T07:04:29;54.47;;;10.15;;
22715;SDS011;11525;51.152;4.456;2023-11-19T07:06:56;50.78;;;9.82;;
22715;SDS011;11525;51.152;4.456;2023-11-19T07:09:21;47.95;;;9.15;;
22715;SDS011;11525;51.152;4.456;2023-11-19T07:11:48;54.88;;;10.45;;
22715;SDS011;11525;51.152;4.456;2023-11-19T07:14:17;50.80;;;9.20;;
22715;SDS011;11525;51.152;4.456;2023-11-19T07:16:43;70.00;;;10.98;;
22715;SDS011;11525;51.152;4.456;2023-11-19T07:19:09;43.03;;;9.82;;
22715;SDS011;11525;51.152;4.456;2023-11-19T07:21:35;49.17;;;9.90;;
22715;SDS011;11525;51.152;4.456;2023-11-19T07:24:04;51.63;;;10.48;;
22715;SDS011;11525;51.152;4.456;2023-11-19T07:26:31;45.97;;;9.18;;
22715;SDS011;11525;51.152;4.456;2023-11-19T07:28:56;43.80;;;9.60;;
22715;SDS011;11525;51.152;4.456;2023-11-19T07:31:23;61.78;;;11.27;;
22715;SDS011;11525;51.152;4.456;2023-11-19T07:33:49;51.78;;;9.65;;
22715;SDS011;11525;51.152;4.456;2023-11-19T07:36:15;51.00;;;9.48;;
22715;SDS011;11525;51.152;4.456;2023-11-19T07:38:41;53.88;;;9.80;;
22715;SDS011;11525;51.152;4.456;2023-11-19T07:41:07;49.40;;;9.40;;
22715;SDS011;11525;51.152;4.456;2023-11-19T07:43:43;53.95;;;10.18;;
22715;SDS011;11525;51.152;4.456;2023-11-19T07:46:12;53.85;;;9.35;;
22715;SDS011;11525;51.152;4.456;2023-11-19T07:48:39;46.50;;;9.13;;
22715;SDS011;11525;51.152;4.456;2023-11-19T07:51:05;49.95;;;9.48;;
22715;SDS011;11525;51.152;4.456;2023-11-19T07:53:30;44.95;;;9.50;;
22715;SDS011;11525;51.152;4.456;2023-11-19T07:55:57;51.33;;;10.35;;
22715;SDS011;11525;51.152;4.456;2023-11-19T07:58:24;41.05;;;9.10;;
22715;SDS011;11525;51.152;4.456;2023-11-19T08:00:50;42.38;;;9.10;;
22715;SDS011;11525;51.152;4.456;2023-11-19T08:03:17;51.35;;;9.48;;
22715;SDS011;11525;51.152;4.456;2023-11-19T08:05:44;43.28;;;9.25;;
22715;SDS011;11525;51.152;4.456;2023-11-19T08:08:11;49.05;;;8.77;;
22715;SDS011;11525;51.152;4.456;2023-11-19T08:10:37;46.90;;;9.35;;
22715;SDS011;11525;51.152;4.456;2023-11-19T08:13:03;40.63;;;8.52;;
22715;SDS011;11525;51.152;4.456;2023-11-19T08:15:29;39.20;;;8.10;;
22715;SDS011;11525;51.152;4.456;2023-11-19T08:17:55;39.17;;;8.63;;
22715;SDS011;11525;51.152;4.456;2023-11-19T08:20:21;39.42;;;8.27;;
22715;SDS011;11525;51.152;4.456;2023-11-19T08:22:47;51.42;;;10.05;;
22715;SDS011;11525;51.152;4.456;2023-11-19T08:25:13;32.75;;;8.10;;
22715;SDS011;11525;51.152;4.456;2023-11-19T08:27:39;47.65;;;8.88;;
22715;SDS011;11525;51.152;4.456;2023-11-19T08:30:05;48.30;;;10.40;;
22715;SDS011;11525;51.152;4.456;2023-11-19T08:32:31;47.63;;;8.32;;
22715;SDS011;11525;51.152;4.456;2023-11-19T08:34:57;44.03;;;8.13;;
22715;SDS011;11525;51.152;4.456;2023-11-19T08:37:23;42.65;;;8.95;;
22715;SDS011;11525;51.152;4.456;2023-11-19T08:39:49;38.60;;;8.50;;
22715;SDS011;11525;51.152;4.456;2023-11-19T08:42:18;45.63;;;8.30;;
22715;SDS011;11525;51.152;4.456;2023-11-19T08:44:48;40.90;;;9.45;;
22715;SDS011;11525;51.152;4.456;2023-11-19T08:47:15;39.83;;;8.05;;
22715;SDS011;11525;51.152;4.456;2023-11-19T08:49:44;35.88;;;7.57;;
22715;SDS011;11525;51.152;4.456;2023-11-19T08:52:11;33.97;;;7.38;;
22715;SDS011;11525;51.152;4.456;2023-11-19T08:54:37;40.83;;;7.97;;
22715;SDS011;11525;51.152;4.456;2023-11-19T08:57:03;33.00;;;7.32;;
22715;SDS011;11525;51.152;4.456;2023-11-19T08:59:29;32.10;;;7.85;;
22715;SDS011;11525;51.152;4.456;2023-11-19T09:01:55;39.03;;;8.98;;
22715;SDS011;11525;51.152;4.456;2023-11-19T09:04:21;38.17;;;8.75;;
22715;SDS011;11525;51.152;4.456;2023-11-19T09:06:49;29.63;;;6.47;;
22715;SDS011;11525;51.152;4.456;2023-11-19T09:09:15;33.65;;;7.95;;
22715;SDS011;11525;51.152;4.456;2023-11-19T09:11:41;27.08;;;6.78;;
22715;SDS011;11525;51.152;4.456;2023-11-19T09:14:07;35.33;;;7.72;;
22715;SDS011;11525;51.152;4.456;2023-11-19T09:16:33;40.67;;;8.35;;
22715;SDS011;11525;51.152;4.456;2023-11-19T09:18:59;39.70;;;8.52;;
22715;SDS011;11525;51.152;4.456;2023-11-19T09:21:27;27.98;;;7.03;;
22715;SDS011;11525;51.152;4.456;2023-11-19T09:23:54;33.65;;;7.38;;
22715;SDS011;11525;51.152;4.456;2023-11-19T09:26:20;37.33;;;7.90;;
22715;SDS011;11525;51.152;4.456;2023-11-19T09:28:46;34.05;;;7.90;;
22715;SDS011;11525;51.152;4.456;2023-11-19T09:31:15;34.75;;;7.63;;
22715;SDS011;11525;51.152;4.456;2023-11-19T09:33:42;28.25;;;6.70;;
22715;SDS011;11525;51.152;4.456;2023-11-19T09:36:08;31.33;;;7.10;;
22715;SDS011;11525;51.152;4.456;2023-11-19T09:38:37;31.27;;;7.00;;
22715;SDS011;11525;51.152;4.456;2023-11-19T09:41:04;28.85;;;6.68;;
22715;SDS011;11525;51.152;4.456;2023-11-19T09:43:33;24.25;;;6.57;;
22715;SDS011;11525;51.152;4.456;2023-11-19T09:45:59;33.20;;;7.10;;
22715;SDS011;11525;51.152;4.456;2023-11-19T09:48:32;30.65;;;6.40;;
22715;SDS011;11525;51.152;4.456;2023-11-19T09:51:00;30.30;;;6.72;;
22715;SDS011;11525;51.152;4.456;2023-11-19T09:53:27;34.60;;;7.10;;
22715;SDS011;11525;51.152;4.456;2023-11-19T09:55:53;26.40;;;6.60;;
22715;SDS011;11525;51.152;4.456;2023-11-19T09:58:20;23.23;;;6.25;;
22715;SDS011;11525;51.152;4.456;2023-11-19T10:00:46;40.83;;;7.72;;
22715;SDS011;11525;51.152;4.456;2023-11-19T10:03:13;35.47;;;7.30;;
22715;SDS011;11525;51.152;4.456;2023-11-19T10:05:39;30.63;;;6.72;;
22715;SDS011;11525;51.152;4.456;2023-11-19T10:08:06;26.55;;;6.15;;
22715;SDS011;11525;51.152;4.456;2023-11-19T10:10:33;26.58;;;6.55;;
22715;SDS011;11525;51.152;4.456;2023-11-19T10:12:59;26.42;;;7.20;;
22715;SDS011;11525;51.152;4.456;2023-11-19T10:15:25;31.27;;;6.35;;
22715;SDS011;11525;51.152;4.456;2023-11-19T10:17:57;33.67;;;7.85;;
22715;SDS011;11525;51.152;4.456;2023-11-19T10:20:23;18.75;;;5.70;;
22715;SDS011;11525;51.152;4.456;2023-11-19T10:22:53;23.83;;;5.85;;
22715;SDS011;11525;51.152;4.456;2023-11-19T10:25:25;28.15;;;6.65;;
22715;SDS011;11525;51.152;4.456;2023-11-19T10:27:52;29.27;;;6.97;;
22715;SDS011;11525;51.152;4.456;2023-11-19T10:30:21;28.50;;;6.05;;
22715;SDS011;11525;51.152;4.456;2023-11-19T10:35:34;25.67;;;5.90;;
22715;SDS011;11525;51.152;4.456;2023-11-19T10:38:01;24.35;;;5.90;;
22715;SDS011;11525;51.152;4.456;2023-11-19T10:40:42;25.00;;;6.68;;
22715;SDS011;11525;51.152;4.456;2023-11-19T10:43:09;29.50;;;7.15;;
22715;SDS011;11525;51.152;4.456;2023-11-19T10:45:35;32.25;;;6.63;;
22715;SDS011;11525;51.152;4.456;2023-11-19T10:48:02;22.38;;;5.43;;
22715;SDS011;11525;51.152;4.456;2023-11-19T10:50:39;30.23;;;6.93;;
22715;SDS011;11525;51.152;4.456;2023-11-19T10:53:06;34.83;;;7.57;;
22715;SDS011;11525;51.152;4.456;2023-11-19T10:55:36;33.50;;;7.13;;
22715;SDS011;11525;51.152;4.456;2023-11-19T10:58:06;26.42;;;6.75;;
22715;SDS011;11525;51.152;4.456;2023-11-19T11:03:10;32.55;;;7.22;;
22715;SDS011;11525;51.152;4.456;2023-11-19T11:05:41;37.70;;;8.00;;
22715;SDS011;11525;51.152;4.456;2023-11-19T11:08:07;25.55;;;5.80;;
22715;SDS011;11525;51.152;4.456;2023-11-19T11:10:35;23.85;;;6.43;;
22715;SDS011;11525;51.152;4.456;2023-11-19T11:13:07;35.15;;;6.75;;
22715;SDS011;11525;51.152;4.456;2023-11-19T11:15:35;29.52;;;6.70;;
22715;SDS011;11525;51.152;4.456;2023-11-19T11:18:02;31.77;;;7.30;;
22715;SDS011;11525;51.152;4.456;2023-11-19T11:20:29;34.22;;;6.10;;
22715;SDS011;11525;51.152;4.456;2023-11-19T11:28:37;25.27;;;6.25;;
22715;SDS011;11525;51.152;4.456;2023-11-19T11:34:15;29.60;;;5.97;;
22715;SDS011;11525;51.152;4.456;2023-11-19T11:37:07;26.75;;;6.72;;
22715;SDS011;11525;51.152;4.456;2023-11-19T11:39:36;25.60;;;7.32;;
22715;SDS011;11525;51.152;4.456;2023-11-19T11:50:08;33.83;;;7.07;;
22715;SDS011;11525;51.152;4.456;2023-11-19T11:53:24;28.95;;;6.78;;
22715;SDS011;11525;51.152;4.456;2023-11-19T11:55:27;29.05;;;6.57;;
22715;SDS011;11525;51.152;4.456;2023-11-19T11:57:59;28.27;;;7.35;;
22715;SDS011;11525;51.152;4.456;2023-11-19T12:00:29;26.48;;;5.80;;
22715;SDS011;11525;51.152;4.456;2023-11-19T12:02:57;26.30;;;5.93;;
22715;SDS011;11525;51.152;4.456;2023-11-19T12:05:25;31.38;;;6.40;;
22715;SDS011;11525;51.152;4.456;2023-11-19T12:07:55;27.92;;;5.97;;
22715;SDS011;11525;51.152;4.456;2023-11-19T12:10:24;27.45;;;6.95;;
22715;SDS011;11525;51.152;4.456;2023-11-19T12:12:53;25.63;;;6.00;;
22715;SDS011;11525;51.152;4.456;2023-11-19T12:15:19;29.35;;;7.07;;
22715;SDS011;11525;51.152;4.456;2023-11-19T12:17:50;34.22;;;7.88;;
22715;SDS011;11525;51.152;4.456;2023-11-19T12:20:17;30.80;;;7.38;;
22715;SDS011;11525;51.152;4.456;2023-11-19T12:22:44;36.58;;;7.47;;
22715;SDS011;11525;51.152;4.456;2023-11-19T12:25:11;32.83;;;7.18;;
22715;SDS011;11525;51.152;4.456;2023-11-19T12:27:41;30.10;;;7.05;;
22715;SDS011;11525;51.152;4.456;2023-11-19T12:30:10;32.47;;;7.88;;
22715;SDS011;11525;51.152;4.456;2023-11-19T12:35:09;35.00;;;6.57;;
22715;SDS011;11525;51.152;4.456;2023-11-19T12:37:44;35.72;;;7.13;;
22715;SDS011;11525;51.152;4.456;2023-11-19T12:40:18;27.30;;;7.43;;
22715;SDS011;11525;51.152;4.456;2023-11-19T12:42:51;31.42;;;6.97;;
22715;SDS011;11525;51.152;4.456;2023-11-19T12:45:18;35.30;;;7.63;;
22715;SDS011;11525;51.152;4.456;2023-11-19T12:47:46;34.58;;;6.97;;
22715;SDS011;11525;51.152;4.456;2023-11-19T12:50:13;31.63;;;7.45;;
22715;SDS011;11525;51.152;4.456;2023-11-19T12:52:39;35.13;;;7.20;;
22715;SDS011;11525;51.152;4.456;2023-11-19T12:55:06;41.30;;;8.48;;
22715;SDS011;11525;51.152;4.456;2023-11-19T12:57:53;43.83;;;8.10;;
22715;SDS011;11525;51.152;4.456;2023-11-19T13:00:23;33.80;;;7.57;;
22715;SDS011;11525;51.152;4.456;2023-11-19T13:02:54;30.10;;;7.38;;
22715;SDS011;11525;51.152;4.456;2023-11-19T13:08:02;29.55;;;7.28;;
22715;SDS011;11525;51.152;4.456;2023-11-19T13:10:29;30.80;;;6.55;;
22715;SDS011;11525;51.152;4.456;2023-11-19T13:12:59;24.17;;;7.07;;
22715;SDS011;11525;51.152;4.456;2023-11-19T13:15:33;27.30;;;6.40;;
22715;SDS011;11525;51.152;4.456;2023-11-19T13:17:59;28.02;;;6.70;;
22715;SDS011;11525;51.152;4.456;2023-11-19T13:20:26;37.08;;;6.93;;
22715;SDS011;11525;51.152;4.456;2023-11-19T13:22:56;32.78;;;7.53;;
22715;SDS011;11525;51.152;4.456;2023-11-19T13:25:22;28.08;;;6.22;;
22715;SDS011;11525;51.152;4.456;2023-11-19T13:27:48;28.75;;;6.72;;
22715;SDS011;11525;51.152;4.456;2023-11-19T13:30:14;26.17;;;6.70;;
22715;SDS011;11525;51.152;4.456;2023-11-19T13:32:41;36.17;;;8.18;;
22715;SDS011;11525;51.152;4.456;2023-11-19T13:35:08;32.88;;;7.22;;
22715;SDS011;11525;51.152;4.456;2023-11-19T13:37:34;32.63;;;6.95;;
22715;SDS011;11525;51.152;4.456;2023-11-19T13:40:00;32.60;;;7.60;;
22715;SDS011;11525;51.152;4.456;2023-11-19T13:42:26;29.90;;;7.50;;
22715;SDS011;11525;51.152;4.456;2023-11-19T13:44:52;23.08;;;6.60;;
22715;SDS011;11525;51.152;4.456;2023-11-19T13:47:18;28.05;;;6.53;;
22715;SDS011;11525;51.152;4.456;2023-11-19T13:49:46;36.13;;;7.55;;
22715;SDS011;11525;51.152;4.456;2023-11-19T13:52:12;34.35;;;7.35;;
22715;SDS011;11525;51.152;4.456;2023-11-19T13:54:38;26.58;;;6.47;;
22715;SDS011;11525;51.152;4.456;2023-11-19T13:57:04;28.67;;;6.72;;
22715;SDS011;11525;51.152;4.456;2023-11-19T13:59:30;29.38;;;6.70;;
22715;SDS011;11525;51.152;4.456;2023-11-19T14:01:57;33.03;;;7.25;;
22715;SDS011;11525;51.152;4.456;2023-11-19T14:04:23;25.75;;;6.70;;
22715;SDS011;11525;51.152;4.456;2023-11-19T14:06:50;29.73;;;6.70;;
22715;SDS011;11525;51.152;4.456;2023-11-19T14:09:16;30.02;;;6.78;;
22715;SDS011;11525;51.152;4.456;2023-11-19T14:11:42;21.13;;;6.75;;
22715;SDS011;11525;51.152;4.456;2023-11-19T14:14:08;32.53;;;7.20;;
22715;SDS011;11525;51.152;4.456;2023-11-19T14:16:34;32.47;;;8.07;;
22715;SDS011;11525;51.152;4.456;2023-11-19T14:19:00;33.78;;;7.25;;
22715;SDS011;11525;51.152;4.456;2023-11-19T14:21:26;33.63;;;7.40;;
22715;SDS011;11525;51.152;4.456;2023-11-19T14:23:52;28.48;;;6.50;;
22715;SDS011;11525;51.152;4.456;2023-11-19T14:26:18;33.90;;;7.38;;
22715;SDS011;11525;51.152;4.456;2023-11-19T14:28:43;29.58;;;6.95;;
22715;SDS011;11525;51.152;4.456;2023-11-19T14:31:09;29.23;;;7.03;;
22715;SDS011;11525;51.152;4.456;2023-11-19T14:33:35;34.20;;;7.20;;
22715;SDS011;11525;51.152;4.456;2023-11-19T14:36:03;31.13;;;7.38;;
22715;SDS011;11525;51.152;4.456;2023-11-19T14:38:32;37.35;;;7.40;;
22715;SDS011;11525;51.152;4.456;2023-11-19T14:40:58;35.47;;;7.18;;
22715;SDS011;11525;51.152;4.456;2023-11-19T14:43:24;32.00;;;7.30;;
22715;SDS011;11525;51.152;4.456;2023-11-19T14:45:51;26.58;;;6.75;;
22715;SDS011;11525;51.152;4.456;2023-11-19T14:48:17;28.50;;;6.55;;
22715;SDS011;11525;51.152;4.456;2023-11-19T14:50:45;28.90;;;6.35;;
22715;SDS011;11525;51.152;4.456;2023-11-19T14:53:14;38.70;;;8.10;;
22715;SDS011;11525;51.152;4.456;2023-11-19T14:55:45;27.38;;;6.65;;
22715;SDS011;11525;51.152;4.456;2023-11-19T14:58:10;30.58;;;6.78;;
22715;SDS011;11525;51.152;4.456;2023-11-19T15:00:36;27.40;;;5.78;;